Time;durP1;ratioP1;P1;durP2;ratioP2;P2;SDS_P1;SDS_P2;PMS_P1;PMS_P2;Temp;Humidity;BMP_temperature;BMP_pressure;BME280_temperature;BME280_humidity;BME280_pressure;Samples;Min_cycle;Max_cycle;Signal;HPM_P1;HPM_P2
2023/03/09 00:01:39;;;;;;;4.75;1.55;;;;;;;14.48;62.62;95862.19;4998109;28;20100;-27
2023/03/09 00:04:05;;;;;;;6.68;2.08;;;;;;;14.43;62.50;95863.63;4997754;28;20101;-27
2023/03/09 00:06:31;;;;;;;8.25;2.00;;;;;;;14.34;62.57;95850.75;5004999;28;20028;-26
2023/03/09 00:08:57;;;;;;;5.13;2.00;;;;;;;14.36;62.49;95858.47;5000114;28;20018;-27
2023/03/09 00:14:26;;;;;;;5.87;2.07;;;;;;;14.26;62.70;95838.69;4998052;28;20072;-27
2023/03/09 00:16:51;;;;;;;5.90;1.75;;;;;;;14.37;62.35;95829.97;4998472;28;20030;-27
2023/03/09 00:19:20;;;;;;;4.55;1.95;;;;;;;14.42;62.14;95834.06;4997506;28;20434;-27
2023/03/09 00:21:51;;;;;;;4.65;1.75;;;;;;;14.35;62.14;95846.03;4997270;28;20018;-27
2023/03/09 00:24:19;;;;;;;7.20;2.15;;;;;;;14.43;61.96;95855.44;5004631;28;20407;-27
2023/03/09 00:26:51;;;;;;;5.60;1.88;;;;;;;14.61;61.67;95858.03;5003967;28;20030;-26
2023/03/09 00:29:17;;;;;;;4.90;2.08;;;;;;;14.41;62.29;95866.06;4996980;28;20018;-27
2023/03/09 00:31:43;;;;;;;4.32;1.80;;;;;;;14.37;62.46;95854.53;4997162;28;20429;-27
2023/03/09 00:34:10;;;;;;;4.68;1.60;;;;;;;14.46;61.78;95857.25;4997724;28;20030;-26
2023/03/09 00:36:36;;;;;;;5.68;2.08;;;;;;;14.41;62.21;95859.84;4997029;28;20018;-27
2023/03/09 00:39:02;;;;;;;4.57;1.83;;;;;;;14.31;62.67;95853.66;4996964;28;20031;-27
2023/03/09 00:41:30;;;;;;;5.05;1.90;;;;;;;14.34;62.66;95856.19;4998930;28;20037;-27
2023/03/09 00:43:56;;;;;;;7.07;1.92;;;;;;;14.29;62.68;95861.56;5000326;28;20023;-27
2023/03/09 00:46:22;;;;;;;8.18;2.00;;;;;;;14.47;61.85;95847.81;5002672;28;20470;-27
2023/03/09 00:48:48;;;;;;;3.85;1.98;;;;;;;14.51;61.94;95837.47;5003262;28;20084;-27
2023/03/09 00:51:13;;;;;;;7.90;2.33;;;;;;;14.46;61.98;95834.66;4996980;28;20018;-27
2023/03/09 00:53:40;;;;;;;4.95;1.98;;;;;;;14.43;62.39;95819.22;4997208;28;20393;-27
2023/03/09 00:56:08;;;;;;;5.03;2.13;;;;;;;14.44;62.24;95818.75;4996636;28;20096;-27
2023/03/09 00:58:35;;;;;;;4.25;2.38;;;;;;;14.42;62.40;95806.78;5003572;28;20093;-27
2023/03/09 01:01:06;;;;;;;5.13;2.20;;;;;;;14.26;62.94;95818.84;4999824;28;20036;-27
2023/03/09 01:03:31;;;;;;;6.88;2.50;;;;;;;14.34;62.49;95809.09;4999589;28;20022;-27
2023/03/09 01:05:59;;;;;;;4.80;2.45;;;;;;;14.30;62.69;95805.78;5003968;28;20369;-27
2023/03/09 01:08:24;;;;;;;3.97;2.60;;;;;;;14.36;62.69;95809.38;4996270;28;20030;-27
2023/03/09 01:10:50;;;;;;;5.63;2.50;;;;;;;14.39;62.77;95808.44;4997041;28;20054;-27
2023/03/09 01:13:15;;;;;;;4.80;2.50;;;;;;;14.54;62.18;95798.34;4996351;28;20025;-27
2023/03/09 01:15:41;;;;;;;5.30;2.40;;;;;;;14.21;63.43;95803.13;5002855;28;20061;-26
2023/03/09 01:18:06;;;;;;;4.30;2.47;;;;;;;14.20;63.55;95790.72;5003191;28;20018;-26
2023/03/09 01:20:31;;;;;;;7.50;2.65;;;;;;;14.21;63.65;95798.44;5001708;28;20026;-27
2023/03/09 01:22:57;;;;;;;7.30;2.67;;;;;;;14.49;62.64;95796.25;4997056;28;20030;-27
2023/03/09 01:25:23;;;;;;;8.35;2.60;;;;;;;14.38;63.21;95794.03;5002999;28;20027;-27
2023/03/09 01:27:48;;;;;;;7.50;2.53;;;;;;;14.41;63.39;95795.13;4996192;28;20026;-26
2023/03/09 01:30:14;;;;;;;4.90;2.67;;;;;;;14.41;63.52;95797.84;4997628;28;20052;-27
2023/03/09 01:32:40;;;;;;;6.00;2.67;;;;;;;14.25;63.84;95811.88;5001753;28;20033;-27
2023/03/09 01:35:07;;;;;;;6.85;2.70;;;;;;;14.36;63.57;95809.38;5003266;28;20026;-27
2023/03/09 01:37:33;;;;;;;5.05;2.40;;;;;;;14.50;62.91;95811.41;4995946;28;20427;-27
2023/03/09 01:39:59;;;;;;;7.05;2.85;;;;;;;14.36;64.09;95801.94;4995859;28;20033;-27
2023/03/09 01:42:24;;;;;;;6.82;2.70;;;;;;;14.46;63.76;95802.69;4996422;28;20022;-27
2023/03/09 01:45:45;;;;;;;6.85;2.40;;;;;;;14.36;64.28;95793.00;4995980;28;20038;-26
2023/03/09 01:48:11;;;;;;;5.88;2.25;;;;;;;14.40;64.08;95798.31;4915658;28;20641;-27
2023/03/09 01:50:37;;;;;;;5.50;2.55;;;;;;;14.31;64.46;95802.59;4962053;28;20178;-27
2023/03/09 01:53:10;;;;;;;5.80;2.67;;;;;;;14.42;64.26;95810.28;4954847;28;20465;-27
2023/03/09 01:55:51;;;;;;;6.20;2.47;;;;;;;14.33;64.71;95810.31;4955776;28;20035;-27
2023/03/09 01:58:25;;;;;;;4.88;2.33;;;;;;;14.48;64.09;95821.28;4954861;28;20027;-27
2023/03/09 02:00:54;;;;;;;7.75;2.90;;;;;;;14.38;64.54;95817.84;4955021;28;20667;-26
2023/03/09 02:03:28;;;;;;;7.47;2.53;;;;;;;14.36;64.78;95803.91;4960412;28;20034;-27
2023/03/09 02:05:59;;;;;;;7.45;2.83;;;;;;;14.54;64.28;95800.31;4964263;28;20027;-27
2023/03/09 02:08:26;;;;;;;7.93;3.13;;;;;;;14.40;64.62;95807.25;4958868;28;20035;-27
2023/03/09 02:10:56;;;;;;;5.45;2.53;;;;;;;14.36;64.59;95809.38;4955285;28;20558;-27
2023/03/09 02:13:28;;;;;;;8.23;2.85;;;;;;;14.40;64.84;95815.44;4954501;28;20031;-27
2023/03/09 02:15:53;;;;;;;8.75;3.05;;;;;;;14.42;64.94;95818.47;4955381;28;20067;-27
2023/03/09 02:18:21;;;;;;;10.20;3.00;;;;;;;14.51;64.55;95820.34;4953682;28;20051;-27
2023/03/09 02:20:50;;;;;;;6.80;2.78;;;;;;;14.24;65.54;95818.53;4964013;28;20419;-27
2023/03/09 02:23:31;;;;;;;4.80;2.80;;;;;;;14.23;65.61;95812.34;5012024;28;20018;-27
2023/03/09 02:26:18;;;;;;;5.90;2.78;;;;;;;14.37;65.14;95816.34;4997841;28;20426;-27
2023/03/09 02:28:44;;;;;;;5.93;2.85;;;;;;;14.43;65.10;95811.03;5001390;28;20034;-27
2023/03/09 02:31:13;;;;;;;4.65;2.45;;;;;;;14.47;64.83;95798.69;4997019;28;20034;-27
2023/03/09 02:33:39;;;;;;;8.90;3.50;;;;;;;14.48;64.75;95802.94;5001710;28;20022;-27
2023/03/09 02:36:05;;;;;;;9.45;3.15;;;;;;;14.40;64.94;95812.72;5002532;28;20025;-27
2023/03/09 02:38:30;;;;;;;7.30;2.60;;;;;;;14.43;65.02;95809.06;4999547;28;20026;-27
2023/03/09 02:40:58;;;;;;;8.52;2.60;;;;;;;14.43;64.96;95808.31;4999582;28;20073;-26
2023/03/09 02:43:30;;;;;;;7.38;2.90;;;;;;;14.47;65.13;95819.78;4995558;28;20018;-26
2023/03/09 02:45:55;;;;;;;9.88;3.88;;;;;;;14.49;64.89;95815.34;4995076;28;20112;-27
2023/03/09 02:48:21;;;;;;;6.97;2.80;;;;;;;14.53;64.93;95818.66;5003033;28;20415;-27
2023/03/09 02:50:46;;;;;;;7.88;3.10;;;;;;;14.42;65.12;95817.69;4994944;28;20399;-27
2023/03/09 02:53:12;;;;;;;6.97;2.67;;;;;;;14.45;65.13;95828.44;5001950;28;20041;-27
2023/03/09 02:55:37;;;;;;;6.63;2.90;;;;;;;14.41;65.64;95822.41;5002129;28;20029;-26
2023/03/09 02:58:02;;;;;;;9.15;2.65;;;;;;;14.38;65.28;95828.75;4995113;28;20022;-27
2023/03/09 03:00:30;;;;;;;8.68;2.70;;;;;;;14.42;65.13;95834.81;4995184;28;20030;-27
2023/03/09 03:02:55;;;;;;;8.02;2.22;;;;;;;14.69;64.27;95836.59;4995139;28;20030;-27
2023/03/09 03:05:21;;;;;;;8.43;2.60;;;;;;;14.53;64.71;95847.94;5000925;28;20026;-27
2023/03/09 03:07:46;;;;;;;5.22;2.30;;;;;;;14.27;65.94;95844.91;4997232;28;20034;-27
2023/03/09 03:10:12;;;;;;;9.65;2.83;;;;;;;14.46;65.36;95848.28;5000923;28;20061;-27
2023/03/09 03:12:37;;;;;;;7.60;2.53;;;;;;;14.46;65.15;95845.56;4994926;28;20018;-27
2023/03/09 03:15:05;;;;;;;5.63;2.42;;;;;;;14.55;64.94;95832.59;4995460;28;20509;-27
2023/03/09 03:17:30;;;;;;;9.20;2.45;;;;;;;14.46;65.23;95826.47;4995006;28;20022;-27
2023/03/09 03:19:56;;;;;;;6.68;2.42;;;;;;;14.48;65.02;95835.69;4995484;28;20435;-27
2023/03/09 03:22:22;;;;;;;6.75;2.35;;;;;;;14.48;65.19;95838.41;5001203;28;20030;-27
2023/03/09 03:24:47;;;;;;;8.45;2.80;;;;;;;14.48;65.09;95830.22;5004076;28;20101;-27
2023/03/09 03:27:13;;;;;;;6.88;2.47;;;;;;;14.60;64.75;95823.00;4994238;28;20121;-27
2023/03/09 03:29:38;;;;;;;5.30;2.50;;;;;;;14.32;65.83;95825.16;5002599;28;20026;-26
2023/03/09 03:32:04;;;;;;;5.97;2.30;;;;;;;14.56;64.99;95812.28;4999027;28;20022;-27
2023/03/09 03:34:30;;;;;;;10.02;2.50;;;;;;;14.59;64.63;95805.88;4998058;28;20496;-27
2023/03/09 03:36:55;;;;;;;7.28;2.20;;;;;;;14.50;64.98;95797.78;4998117;28;20360;-27
2023/03/09 03:39:21;;;;;;;8.90;2.85;;;;;;;14.42;65.08;95813.00;5005328;28;20066;-27
2023/03/09 03:41:47;;;;;;;8.07;2.35;;;;;;;14.43;65.01;95803.59;5004903;28;20022;-27
2023/03/09 03:44:12;;;;;;;7.15;2.70;;;;;;;14.58;64.46;95798.19;4997952;28;20034;-27
2023/03/09 03:46:38;;;;;;;7.03;2.17;;;;;;;14.54;64.66;95792.91;5000844;28;20022;-27
2023/03/09 03:49:04;;;;;;;7.65;2.40;;;;;;;14.39;64.39;95789.34;5002576;28;20101;-27
2023/03/09 03:51:29;;;;;;;7.68;2.00;;;;;;;14.49;64.73;95784.59;4998486;28;20501;-27
2023/03/09 03:53:55;;;;;;;6.72;2.05;;;;;;;14.46;64.72;95786.31;5001240;28;20022;-27
2023/03/09 03:56:20;;;;;;;3.67;2.10;;;;;;;14.45;64.69;95779.34;5001026;28;20478;-27
2023/03/09 03:58:46;;;;;;;10.88;2.47;;;;;;;14.33;65.14;95772.13;5005085;28;20057;-27
2023/03/09 04:01:11;;;;;;;7.05;2.30;;;;;;;14.37;65.20;95767.22;4997676;28;20050;-26
2023/03/09 04:03:37;;;;;;;5.53;2.45;;;;;;;14.46;64.86;95774.63;4998273;28;20026;-27
2023/03/09 04:06:02;;;;;;;6.25;2.38;;;;;;;14.35;64.90;95780.56;5004986;28;20022;-26
2023/03/09 04:08:29;;;;;;;7.82;2.70;;;;;;;14.35;64.75;95780.56;4997708;28;20028;-27
2023/03/09 04:10:54;;;;;;;7.22;2.00;;;;;;;14.42;64.54;95777.53;4997835;28;20033;-27
2023/03/09 04:13:20;;;;;;;5.88;2.28;;;;;;;14.23;65.19;95785.06;5001698;28;20021;-27
2023/03/09 04:15:46;;;;;;;4.50;2.08;;;;;;;14.36;64.91;95771.19;5000297;28;20033;-27
2023/03/09 04:18:11;;;;;;;11.75;3.17;;;;;;;14.44;64.67;95777.06;4997469;28;20479;-27
2023/03/09 04:20:39;;;;;;;6.38;1.75;;;;;;;14.42;64.39;95772.06;4997652;28;20069;-27
2023/03/09 04:23:04;;;;;;;6.45;1.90;;;;;;;14.41;64.51;95776.03;4997898;28;20023;-26
2023/03/09 04:25:30;;;;;;;6.95;1.80;;;;;;;14.39;64.44;95783.88;4997279;28;20030;-26
2023/03/09 04:27:56;;;;;;;5.53;1.90;;;;;;;14.31;64.94;95780.03;5003695;28;20537;-27
2023/03/09 04:30:22;;;;;;;8.02;2.10;;;;;;;14.09;65.76;95769.44;5011211;28;20446;-27
2023/03/09 04:32:48;;;;;;;6.18;1.90;;;;;;;14.26;65.04;95777.94;4998200;28;20088;-27
2023/03/09 04:35:15;;;;;;;4.07;1.58;;;;;;;14.38;64.63;95769.50;4997610;28;20018;-27
2023/03/09 04:37:40;;;;;;;4.10;2.17;;;;;;;14.26;65.11;95762.31;4997218;28;20027;-27
2023/03/09 04:40:06;;;;;;;5.53;2.00;;;;;;;14.34;65.11;95757.28;4996979;28;20065;-27
2023/03/09 04:42:32;;;;;;;5.32;2.70;;;;;;;14.37;64.87;95757.06;4999834;28;20030;-27
2023/03/09 04:44:57;;;;;;;7.75;2.28;;;;;;;14.35;65.37;95758.75;5001678;28;20027;-27
2023/03/09 04:47:23;;;;;;;5.78;1.88;;;;;;;14.29;64.92;95755.19;5010999;28;20091;-27
2023/03/09 04:49:49;;;;;;;6.20;2.60;;;;;;;14.32;65.73;95763.19;4996667;28;20022;-27
2023/03/09 04:52:14;;;;;;;5.15;1.83;;;;;;;14.44;65.32;95766.91;4996868;28;20023;-27
2023/03/09 04:54:40;;;;;;;5.18;2.10;;;;;;;14.40;65.56;95760.13;4997316;28;20037;-27
2023/03/09 04:57:06;;;;;;;6.13;1.90;;;;;;;14.19;66.35;95770.88;4996861;28;20033;-26
2023/03/09 04:59:32;;;;;;;6.20;1.92;;;;;;;14.37;65.63;95778.16;5004027;28;20033;-26
2023/03/09 05:01:58;;;;;;;8.43;1.77;;;;;;;14.44;64.89;95780.56;4998932;28;20046;-26
2023/03/09 05:04:24;;;;;;;9.15;2.22;;;;;;;14.26;65.77;95778.69;5000409;28;20026;-26
2023/03/09 05:06:49;;;;;;;7.22;1.88;;;;;;;14.02;66.72;95769.75;4995742;28;20391;-27
2023/03/09 05:09:15;;;;;;;6.03;2.42;;;;;;;14.33;65.43;95772.13;4995191;28;20014;-26
2023/03/09 05:11:42;;;;;;;8.15;1.88;;;;;;;14.38;65.53;95769.50;4996957;28;20448;-27
2023/03/09 05:14:07;;;;;;;5.22;2.05;;;;;;;14.26;66.32;95761.56;4996411;28;20113;-27
2023/03/09 05:16:33;;;;;;;6.65;1.75;;;;;;;14.33;65.88;95758.50;5002765;28;20093;-26
2023/03/09 05:18:58;;;;;;;5.15;2.10;;;;;;;14.45;65.52;95762.97;5003390;28;20071;-27
2023/03/09 05:21:24;;;;;;;5.75;1.80;;;;;;;14.47;65.54;95763.22;4996231;28;20026;-27
2023/03/09 05:23:49;;;;;;;8.02;2.50;;;;;;;14.49;65.39;95752.59;5001764;28;20022;-27
2023/03/09 05:26:15;;;;;;;5.55;2.20;;;;;;;14.41;65.64;95756.94;4996812;28;20033;-27
2023/03/09 05:28:40;;;;;;;6.35;2.13;;;;;;;14.07;66.81;95755.50;4995401;28;20014;-27
2023/03/09 05:31:11;;;;;;;6.57;2.25;;;;;;;14.33;66.18;95756.53;4996808;28;20018;-27
2023/03/09 05:33:37;;;;;;;12.00;3.67;;;;;;;14.40;65.74;95755.41;5001960;28;20041;-27
2023/03/09 05:36:13;;;;;;;6.38;2.20;;;;;;;14.35;65.95;95761.47;5002473;28;20022;-27
2023/03/09 05:38:39;;;;;;;7.53;2.72;;;;;;;14.08;66.84;95750.81;4996007;28;20022;-27
2023/03/09 05:41:05;;;;;;;7.03;2.25;;;;;;;14.35;65.93;95754.06;4996099;28;20072;-27
2023/03/09 05:43:31;;;;;;;7.75;3.15;;;;;;;14.34;65.82;95757.28;4996430;28;20014;-27
2023/03/09 05:45:56;;;;;;;7.03;2.17;;;;;;;14.20;66.60;95749.81;5002217;28;20050;-27
2023/03/09 05:48:21;;;;;;;11.20;2.60;;;;;;;14.42;65.53;95757.69;5010053;28;20018;-27
2023/03/09 05:50:47;;;;;;;5.78;2.20;;;;;;;14.43;65.56;95762.69;4998338;28;20068;-27
2023/03/09 05:53:12;;;;;;;8.75;2.10;;;;;;;14.19;66.01;95761.94;4999415;28;20030;-27
2023/03/09 05:55:38;;;;;;;8.10;2.33;;;;;;;14.27;66.24;95763.81;4996195;28;20018;-27
2023/03/09 05:58:03;;;;;;;8.88;2.47;;;;;;;14.37;65.81;95768.00;4995640;28;20421;-27
2023/03/09 06:00:28;;;;;;;7.95;2.88;;;;;;;14.29;65.87;95766.84;4995500;28;20390;-27
2023/03/09 06:02:57;;;;;;;8.68;2.40;;;;;;;14.46;65.57;95764.47;5002863;28;20057;-27
2023/03/09 06:05:22;;;;;;;6.18;2.08;;;;;;;14.26;66.56;95773.22;5008096;28;20058;-27
2023/03/09 06:07:47;;;;;;;11.63;2.22;;;;;;;14.42;65.89;95777.53;4997342;28;20101;-27
2023/03/09 06:10:16;;;;;;;7.00;2.20;;;;;;;14.46;65.80;95780.09;4995475;28;20050;-27
2023/03/09 06:12:41;;;;;;;6.20;2.10;;;;;;;14.49;65.80;95774.44;4995905;28;20058;-27
2023/03/09 06:15:07;;;;;;;5.60;2.10;;;;;;;14.37;66.38;95784.34;4995538;28;20109;-27
2023/03/09 06:17:34;;;;;;;11.93;2.95;;;;;;;14.45;65.97;95778.59;5000565;28;20454;-27
2023/03/09 06:19:59;;;;;;;12.23;2.83;;;;;;;14.33;66.78;95777.59;4997298;28;20018;-27
2023/03/09 06:22:24;;;;;;;9.13;2.10;;;;;;;14.05;67.54;95771.56;5001572;28;20024;-26
2023/03/09 06:24:50;;;;;;;10.95;2.30;;;;;;;14.39;66.14;95781.16;5002823;28;20029;-27
2023/03/09 06:27:15;;;;;;;7.75;1.90;;;;;;;14.51;66.25;95782.91;4995902;28;20052;-27
2023/03/09 06:29:41;;;;;;;8.93;2.78;;;;;;;14.48;66.21;95794.75;5002299;28;20041;-27
2023/03/09 06:32:07;;;;;;;7.00;2.00;;;;;;;14.36;66.63;95798.44;4995819;28;20030;-27
2023/03/09 06:34:32;;;;;;;6.95;2.40;;;;;;;14.58;65.69;95798.19;5002301;28;20069;-27
2023/03/09 06:36:57;;;;;;;11.07;1.90;;;;;;;14.46;66.14;95791.00;5001276;28;20032;-27
2023/03/09 06:39:24;;;;;;;8.45;2.10;;;;;;;14.46;66.48;95788.28;4996052;28;20053;-27
2023/03/09 06:41:50;;;;;;;6.68;2.70;;;;;;;14.44;66.94;95791.47;4995328;28;20053;-27
2023/03/09 06:44:15;;;;;;;6.65;2.55;;;;;;;14.50;66.34;95795.03;4995520;28;20439;-27
2023/03/09 06:46:40;;;;;;;13.57;3.17;;;;;;;14.55;66.67;95797.13;4998153;28;20512;-27
2023/03/09 06:49:06;;;;;;;11.40;2.25;;;;;;;14.37;67.04;95799.97;4999320;28;20030;-27
2023/03/09 06:51:31;;;;;;;17.70;2.50;;;;;;;14.57;66.08;95791.97;5002276;28;20022;-27
2023/03/09 06:53:57;;;;;;;9.65;3.65;;;;;;;14.48;67.06;95794.00;5001405;28;20467;-27
2023/03/09 06:56:23;;;;;;;12.05;2.90;;;;;;;14.45;67.23;95801.16;4995165;28;20088;-27
2023/03/09 06:58:48;;;;;;;10.63;2.80;;;;;;;14.32;67.92;95800.63;4995649;28;20409;-27
2023/03/09 07:01:16;;;;;;;10.55;2.63;;;;;;;14.50;67.43;95803.22;4994710;28;20050;-26
2023/03/09 07:03:41;;;;;;;9.32;2.38;;;;;;;14.53;67.16;95810.50;4995703;28;20125;-27
2023/03/09 07:06:07;;;;;;;10.40;2.55;;;;;;;14.30;67.76;95811.25;5008378;28;20101;-27
2023/03/09 07:08:33;;;;;;;14.55;2.70;;;;;;;14.43;67.53;95814.50;5001611;28;20030;-27
2023/03/09 07:10:59;;;;;;;14.05;3.97;;;;;;;14.35;67.84;95816.03;5006220;28;20037;-27
2023/03/09 07:13:25;;;;;;;8.40;2.42;;;;;;;14.58;67.15;95820.00;4998406;28;20156;-27
2023/03/09 07:15:50;;;;;;;13.55;2.90;;;;;;;14.51;67.59;95814.91;4999299;28;20101;-27
2023/03/09 07:18:16;;;;;;;16.98;3.20;;;;;;;14.33;68.12;95821.97;4998597;28;20026;-27
2023/03/09 07:20:42;;;;;;;10.90;2.72;;;;;;;14.41;68.12;95811.50;4998653;28;20036;-26
2023/03/09 07:23:09;;;;;;;10.50;3.05;;;;;;;14.61;67.10;95813.59;5005704;28;20033;-27
2023/03/09 07:25:36;;;;;;;8.75;2.53;;;;;;;14.50;67.72;95814.13;5003528;28;20030;-27
2023/03/09 07:28:03;;;;;;;11.68;2.67;;;;;;;14.42;67.72;95829.38;5001096;28;20061;-27
2023/03/09 07:30:29;;;;;;;10.13;2.10;;;;;;;14.50;67.90;95825.06;5004960;28;20018;-27
2023/03/09 07:32:58;;;;;;;10.27;2.88;;;;;;;14.46;67.94;95821.78;4998382;28;20034;-27
2023/03/09 07:35:25;;;;;;;9.35;2.35;;;;;;;14.56;67.81;95839.56;5013527;28;20490;-27
2023/03/09 07:37:50;;;;;;;14.15;2.78;;;;;;;14.49;67.69;95820.81;5002694;28;20026;-27
2023/03/09 07:40:16;;;;;;;10.88;2.47;;;;;;;14.57;67.87;95830.16;5005739;28;20030;-27
2023/03/09 07:42:42;;;;;;;11.18;3.60;;;;;;;14.59;67.50;95821.50;5004500;28;20030;-27
2023/03/09 07:45:08;;;;;;;13.32;3.78;;;;;;;14.32;68.52;95825.16;4998128;28;20481;-27
2023/03/09 07:47:33;;;;;;;15.15;3.38;;;;;;;14.44;68.03;95826.19;5006077;28;20544;-27
2023/03/09 07:50:00;;;;;;;9.68;2.47;;;;;;;14.44;67.99;95813.28;4997700;28;20037;-27
2023/03/09 07:52:30;;;;;;;8.98;3.88;;;;;;;14.40;68.40;95812.72;5005435;28;20022;-27
2023/03/09 07:55:00;;;;;;;11.05;2.63;;;;;;;14.46;68.43;95824.50;5001100;28;20446;-27
2023/03/09 07:57:31;;;;;;;7.70;2.50;;;;;;;14.52;67.99;95817.16;5000268;28;20023;-27
2023/03/09 07:59:57;;;;;;;12.95;2.42;;;;;;;14.58;67.55;95815.31;5012359;28;20025;-27
2023/03/09 08:02:22;;;;;;;11.00;2.75;;;;;;;14.22;69.05;95810.06;4997760;28;20046;-27
2023/03/09 08:04:48;;;;;;;14.40;3.65;;;;;;;14.33;69.23;95815.78;4999970;28;20042;-27
2023/03/09 08:07:14;;;;;;;10.68;2.95;;;;;;;14.60;68.06;95817.53;5003114;28;20042;-27
2023/03/09 08:09:39;;;;;;;23.77;4.13;;;;;;;14.59;68.38;95822.25;5004709;28;20037;-27
2023/03/09 08:12:05;;;;;;;12.35;3.38;;;;;;;14.62;67.97;95821.31;5011320;28;20029;-27
2023/03/09 08:14:30;;;;;;;13.35;3.03;;;;;;;14.58;68.49;95820.78;4997927;28;20053;-26
2023/03/09 08:16:56;;;;;;;12.48;3.58;;;;;;;14.74;67.66;95816.81;4995591;28;20076;-27
2023/03/09 08:19:22;;;;;;;13.10;3.20;;;;;;;14.61;67.82;95819.81;4997224;28;20370;-27
2023/03/09 08:21:48;;;;;;;10.45;2.53;;;;;;;14.46;68.96;95821.00;4997413;28;20026;-27
2023/03/09 08:24:14;;;;;;;17.02;3.15;;;;;;;14.57;68.70;95822.00;5003102;28;20164;-27
2023/03/09 08:26:40;;;;;;;9.15;2.90;;;;;;;14.57;68.58;95830.16;5001700;28;20083;-27
2023/03/09 08:29:06;;;;;;;12.50;2.70;;;;;;;14.47;68.90;95819.78;5011757;28;20104;-27
2023/03/09 08:31:33;;;;;;;23.35;3.40;;;;;;;14.55;68.35;95818.97;4997041;28;20482;-27
2023/03/09 08:33:59;;;;;;;13.80;3.15;;;;;;;14.51;69.11;95814.91;4997272;28;20023;-27
2023/03/09 08:36:24;;;;;;;14.13;3.28;;;;;;;14.52;68.95;95816.41;4997246;28;20021;-27
2023/03/09 08:38:50;;;;;;;12.60;3.08;;;;;;;14.62;68.64;95815.88;4997296;28;20030;-27
2023/03/09 08:41:16;;;;;;;14.60;2.55;;;;;;;14.55;68.79;95823.66;5004272;28;20470;-27
2023/03/09 08:43:42;;;;;;;10.35;2.85;;;;;;;14.81;68.15;95832.84;5000206;28;20040;-27
2023/03/09 08:46:08;;;;;;;15.55;2.55;;;;;;;14.63;68.86;95833.00;5000295;28;20026;-27
2023/03/09 08:48:33;;;;;;;17.13;3.58;;;;;;;14.36;69.56;95839.38;5004678;28;20048;-27
2023/03/09 08:51:00;;;;;;;14.80;2.90;;;;;;;14.54;69.06;95846.72;4996835;28;20370;-26
2023/03/09 08:53:26;;;;;;;10.50;2.35;;;;;;;14.79;68.00;95840.75;4997338;28;20022;-27
2023/03/09 08:55:52;;;;;;;12.13;2.33;;;;;;;14.69;68.62;95850.25;4996946;28;20030;-27
2023/03/09 08:58:17;;;;;;;15.43;3.33;;;;;;;14.69;68.52;95852.97;5003263;28;20031;-27
2023/03/09 09:00:43;;;;;;;12.20;3.83;;;;;;;14.68;68.39;95856.91;5003611;28;20045;-27
2023/03/09 09:03:08;;;;;;;12.40;3.42;;;;;;;14.89;67.67;95857.81;4996642;28;20026;-27
2023/03/09 09:05:34;;;;;;;17.80;3.75;;;;;;;14.86;67.99;95864.94;4996588;28;20505;-27
2023/03/09 09:08:00;;;;;;;14.68;4.20;;;;;;;14.69;68.17;95864.66;4996546;28;20117;-26
2023/03/09 09:10:26;;;;;;;13.63;3.90;;;;;;;14.93;66.96;95875.53;5002646;28;20104;-27
2023/03/09 09:12:51;;;;;;;11.27;3.03;;;;;;;14.45;69.06;95874.81;4998428;28;20136;-27
2023/03/09 09:15:17;;;;;;;10.30;3.13;;;;;;;14.57;68.66;95875.81;5002538;28;20022;-27
2023/03/09 09:17:42;;;;;;;10.85;3.22;;;;;;;14.59;68.63;95876.81;5002569;28;20022;-27
2023/03/09 09:20:09;;;;;;;10.75;2.78;;;;;;;14.68;68.47;95870.56;4996378;28;20104;-27
2023/03/09 09:22:35;;;;;;;9.93;3.50;;;;;;;14.64;68.37;95884.38;4996190;28;20022;-27
2023/03/09 09:25:01;;;;;;;10.25;2.90;;;;;;;14.69;68.60;95881.03;4996696;28;20474;-27
2023/03/09 09:27:27;;;;;;;9.98;2.58;;;;;;;14.76;68.03;95884.59;4995790;28;20022;-27
2023/03/09 09:29:52;;;;;;;11.77;2.92;;;;;;;15.05;66.97;95873.75;5009728;28;20034;-27
2023/03/09 09:32:18;;;;;;;11.20;3.33;;;;;;;15.09;66.15;95874.31;4998121;28;20034;-27
2023/03/09 09:34:44;;;;;;;14.32;3.00;;;;;;;14.76;68.51;95879.16;5000678;28;20034;-26
2023/03/09 09:37:11;;;;;;;7.15;3.03;;;;;;;14.95;66.09;95875.06;4996708;28;20033;-26
2023/03/09 09:39:38;;;;;;;12.88;3.10;;;;;;;14.92;67.66;95874.00;4995928;28;20109;-27
2023/03/09 09:42:22;;;;;;;11.85;3.20;;;;;;;14.87;68.17;95876.63;4994485;28;20053;-27
2023/03/09 09:44:50;;;;;;;13.07;2.47;;;;;;;14.86;68.33;95869.66;4995875;28;20030;-27
2023/03/09 09:47:24;;;;;;;8.82;3.47;;;;;;;15.05;66.70;95869.03;5009728;28;20393;-27
2023/03/09 09:49:53;;;;;;;8.00;3.00;;;;;;;14.75;68.38;95864.75;5002599;28;20024;-27
2023/03/09 09:52:31;;;;;;;13.25;2.80;;;;;;;14.88;68.25;95861.75;4996048;28;20440;-27
2023/03/09 09:55:17;;;;;;;13.57;3.70;;;;;;;14.81;68.05;95875.78;4995588;28;20410;-27
2023/03/09 09:57:45;;;;;;;16.88;3.30;;;;;;;14.71;68.60;95856.72;4996598;28;20466;-27
2023/03/09 10:00:35;;;;;;;15.18;3.72;;;;;;;14.57;69.66;95865.66;4995531;28;20026;-27
2023/03/09 10:03:22;;;;;;;12.00;3.75;;;;;;;14.91;67.95;95858.09;5002030;28;20038;-27
2023/03/09 10:05:57;;;;;;;9.75;3.90;;;;;;;14.96;67.43;95854.72;5002478;28;20029;-27
2023/03/09 10:08:35;;;;;;;11.93;3.40;;;;;;;14.89;67.73;95868.72;4995435;28;20049;-27
2023/03/09 10:11:15;;;;;;;14.13;4.28;;;;;;;14.87;68.35;95862.97;5010215;28;20033;-27
2023/03/09 10:13:46;;;;;;;17.38;3.80;;;;;;;14.88;68.45;95861.75;4995879;28;20072;-27
2023/03/09 10:16:17;;;;;;;12.07;4.63;;;;;;;14.76;68.99;95863.53;4995427;28;20109;-27
2023/03/09 10:18:52;;;;;;;15.70;3.83;;;;;;;14.72;68.99;95865.66;5001904;28;20087;-27
2023/03/09 10:21:26;;;;;;;17.33;3.83;;;;;;;14.99;67.51;95867.41;4998333;28;20018;-27
2023/03/09 10:23:55;;;;;;;17.45;3.70;;;;;;;14.89;68.34;95871.47;4998179;28;20029;-27
2023/03/09 10:26:34;;;;;;;14.88;3.45;;;;;;;14.86;68.60;95869.66;4995457;28;20062;-27
2023/03/09 10:29:05;;;;;;;16.50;4.20;;;;;;;14.89;68.39;95868.72;5003292;28;20024;-27
2023/03/09 10:31:56;;;;;;;14.20;3.67;;;;;;;14.93;68.11;95874.78;4998339;28;20442;-27
2023/03/09 10:34:26;;;;;;;15.82;3.95;;;;;;;14.95;68.12;95877.78;4997325;28;20521;-27
2023/03/09 10:37:07;;;;;;;14.38;3.63;;;;;;;15.02;67.75;95875.44;4999405;28;20055;-27
2023/03/09 10:39:42;;;;;;;10.32;3.83;;;;;;;14.96;68.32;95871.84;5002784;28;20018;-26
2023/03/09 10:42:21;;;;;;;11.68;4.03;;;;;;;15.06;67.94;95886.94;4999372;28;20033;-26
2023/03/09 10:45:02;;;;;;;13.70;3.67;;;;;;;14.99;68.48;95887.28;4999155;28;20034;-27
2023/03/09 10:47:47;;;;;;;16.42;3.97;;;;;;;15.06;67.46;95876.03;5007549;28;20022;-26
2023/03/09 10:50:14;;;;;;;14.82;4.40;;;;;;;14.91;68.73;95877.97;5002134;28;20394;-27
2023/03/09 10:52:40;;;;;;;13.20;4.47;;;;;;;15.22;67.30;95850.22;4999476;28;20053;-26
2023/03/09 10:55:44;;;;;;;13.85;3.60;;;;;;;15.06;67.62;95851.44;4999067;28;20018;-27
2023/03/09 10:58:14;;;;;;;15.55;4.13;;;;;;;15.16;67.39;95852.09;4970567;28;20035;-26
2023/03/09 11:00:59;;;;;;;19.33;4.03;;;;;;;15.04;68.47;95858.59;4974836;28;20038;-26
2023/03/09 11:03:31;;;;;;;15.60;4.30;;;;;;;15.10;68.22;95862.91;4975538;28;20066;-27
2023/03/09 11:06:21;;;;;;;18.03;3.67;;;;;;;15.11;68.02;95860.94;4974872;28;20038;-27
2023/03/09 11:08:55;;;;;;;18.85;4.22;;;;;;;15.13;67.96;95858.50;4975149;28;20284;-27
2023/03/09 11:11:24;;;;;;;13.73;3.97;;;;;;;15.08;68.38;95856.44;4975225;28;20622;-27
2023/03/09 11:13:50;;;;;;;17.42;4.32;;;;;;;15.14;68.38;95851.81;4974926;28;20043;-27
2023/03/09 11:16:26;;;;;;;14.07;5.13;;;;;;;15.25;67.09;95843.81;4975270;28;20034;-27
2023/03/09 11:19:13;;;;;;;14.95;4.18;;;;;;;15.52;65.55;95850.22;4974506;28;20034;-26
2023/03/09 11:21:55;;;;;;;9.85;3.50;;;;;;;15.27;68.27;95857.75;4975042;28;20033;-26
2023/03/09 11:24:24;;;;;;;13.32;3.40;;;;;;;15.27;68.49;95846.84;4975093;28;20430;-27
2023/03/09 11:27:11;;;;;;;12.77;3.72;;;;;;;15.23;68.28;95857.19;4974836;28;20042;-27
2023/03/09 11:29:39;;;;;;;14.88;3.85;;;;;;;15.27;68.38;95852.28;4969480;28;20061;-26
2023/03/09 11:32:09;;;;;;;11.23;3.47;;;;;;;15.33;67.78;95860.59;4987608;28;20038;-26
2023/03/09 11:34:36;;;;;;;11.93;4.13;;;;;;;15.31;67.85;95863.78;4998618;28;20367;-26
2023/03/09 11:37:19;;;;;;;11.73;4.05;;;;;;;15.26;67.90;95866.41;5004015;28;20040;-27